Time,TemperatureF,DewpointF,PressureIn,WindDirection,WindDirectionDegrees,WindSpeedMPH,WindSpeedGustMPH,Humidity,HourlyPrecipIn,Conditions,Clouds,dailyrainin,SoftwareType,DateUTC
2016-08-26 00:03:00,75.0,67.7,30.08,WSW,245,0.0,0.0,78,0.00,CLR,,0.00,WeatherDisplay:10.37,2016-08-26 04:03:00,
2016-08-26 00:08:00,74.8,68.3,30.08,WSW,245,0.0,0.0,80,0.00,CLR,,0.00,WeatherDisplay:10.37,2016-08-26 04:08:00,
2016-08-26 00:13:00,74.7,68.1,30.08,WSW,245,0.0,0.0,80,0.00,CLR,,0.00,WeatherDisplay:10.37,2016-08-26 04:13:00,
2016-08-26 00:18:00,74.5,68.3,30.08,SW,222,0.0,0.0,81,0.00,CLR,,0.00,WeatherDisplay:10.37,2016-08-26 04:18:00,
2016-08-26 00:23:00,74.5,68.3,30.08,SSW,199,0.0,0.0,81,0.00,CLR,,0.00,WeatherDisplay:10.37,2016-08-26 04:23:00,
2016-08-26 00:28:00,74.3,67.7,30.08,SSW,199,0.0,0.0,80,0.00,CLR,,0.00,WeatherDisplay:10.37,2016-08-26 04:28:00,
2016-08-26 00:33:00,74.3,67.7,30.09,SSW,199,0.0,0.0,80,0.00,CLR,,0.00,WeatherDisplay:10.37,2016-08-26 04:33:00,
2016-08-26 00:38:00,74.3,68.4,30.09,WNW,289,0.0,0.0,82,0.00,CLR,,0.00,WeatherDisplay:10.37,2016-08-26 04:38:00,
2016-08-26 00:43:00,74.3,68.8,30.08,WNW,289,0.0,0.0,83,0.00,CLR,,0.00,WeatherDisplay:10.37,2016-08-26 04:43:00,
2016-08-26 00:48:00,73.9,68.4,30.08,WNW,289,0.0,0.0,83,0.00,CLR,,0.00,WeatherDisplay:10.37,2016-08-26 04:48:00,
2016-08-26 00:53:00,74.1,68.6,30.08,WSW,245,0.0,0.0,83,0.00,CLR,,0.00,WeatherDisplay:10.37,2016-08-26 04:53:00,
2016-08-26 00:58:00,74.3,68.4,30.08,West,267,0.0,0.0,82,0.00,CLR,,0.00,WeatherDisplay:10.37,2016-08-26 04:58:00,
2016-08-26 01:03:00,74.3,68.4,30.08,WSW,245,0.0,0.0,82,0.00,CLR,,0.00,WeatherDisplay:10.37,2016-08-26 05:03:00,
2016-08-26 01:08:00,74.3,68.4,30.08,WSW,245,0.0,0.0,82,0.00,CLR,,0.00,WeatherDisplay:10.37,2016-08-26 05:08:00,
2016-08-26 01:13:00,74.5,68.6,30.08,NW,312,0.0,0.0,82,0.00,CLR,,0.00,WeatherDisplay:10.37,2016-08-26 05:13:00,
2016-08-26 01:18:00,74.5,68.6,30.08,WNW,289,0.0,0.0,82,0.00,CLR,,0.00,WeatherDisplay:10.37,2016-08-26 05:18:00,
2016-08-26 01:23:00,74.8,68.6,30.08,NW,312,0.0,0.0,81,0.00,CLR,,0.00,WeatherDisplay:10.37,2016-08-26 05:23:00,
2016-08-26 01:28:00,75.2,69.0,30.08,NNW,335,0.0,0.0,81,0.00,CLR,,0.00,WeatherDisplay:10.37,2016-08-26 05:28:00,
2016-08-26 01:33:00,75.6,69.0,30.08,SW,222,0.0,0.0,80,0.00,CLR,,0.00,WeatherDisplay:10.37,2016-08-26 05:33:00,
2016-08-26 01:38:00,75.4,68.4,30.09,WSW,245,0.0,0.0,79,0.00,CLR,,0.00,WeatherDisplay:10.37,2016-08-26 05:38:00,
2016-08-26 01:43:00,75.0,68.4,30.09,WSW,245,0.0,0.0,80,0.00,CLR,,0.00,WeatherDisplay:10.37,2016-08-26 05:43:00,
2016-08-26 01:48:00,74.5,67.9,30.09,WSW,245,0.0,0.0,80,0.00,CLR,,0.00,WeatherDisplay:10.37,2016-08-26 05:48:00,
2016-08-26 01:53:00,74.3,68.1,30.09,WSW,245,0.0,0.0,81,0.00,CLR,,0.00,WeatherDisplay:10.37,2016-08-26 05:53:00,
2016-08-26 01:58:00,74.3,68.1,30.09,North,357,0.0,0.0,81,0.00,CLR,,0.00,WeatherDisplay:10.37,2016-08-26 05:58:00,
2016-08-26 02:03:00,74.5,68.3,30.08,WNW,289,1.5,1.5,81,0.00,CLR,,0.00,WeatherDisplay:10.37,2016-08-26 06:03:00,
2016-08-26 02:08:00,75.2,69.0,30.08,West,267,0.5,1.2,81,0.00,CLR,,0.00,WeatherDisplay:10.37,2016-08-26 06:08:00,
2016-08-26 02:13:00,75.4,68.8,30.08,South,177,2.7,2.7,80,0.00,CLR,,0.00,WeatherDisplay:10.37,2016-08-26 06:13:00,
2016-08-26 02:18:00,75.0,68.1,30.09,SSW,199,0.0,0.0,79,0.00,CLR,,0.00,WeatherDisplay:10.37,2016-08-26 06:18:00,
2016-08-26 02:23:00,74.8,68.3,30.09,South,177,0.0,0.0,80,0.00,CLR,,0.00,WeatherDisplay:10.37,2016-08-26 06:23:00,
2016-08-26 02:28:00,74.3,68.1,30.09,SW,222,0.0,0.0,81,0.00,CLR,,0.00,WeatherDisplay:10.37,2016-08-26 06:28:00,
2016-08-26 02:33:00,73.9,68.1,30.09,WNW,289,0.0,0.0,82,0.00,CLR,,0.00,WeatherDisplay:10.37,2016-08-26 06:33:00,
2016-08-26 02:43:00,73.6,67.7,30.09,WNW,289,0.0,0.0,82,0.00,CLR,,0.00,WeatherDisplay:10.37,2016-08-26 06:43:00,
2016-08-26 02:48:00,73.2,67.4,30.08,East,87,0.0,0.0,82,0.00,CLR,,0.00,WeatherDisplay:10.37,2016-08-26 06:48:00,
2016-08-26 02:53:00,73.2,67.7,30.09,East,87,0.0,0.0,83,0.00,CLR,,0.00,WeatherDisplay:10.37,2016-08-26 06:53:00,
2016-08-26 02:58:00,73.0,67.9,30.09,ENE,65,0.0,0.0,84,0.00,CLR,,0.00,WeatherDisplay:10.37,2016-08-26 06:58:00,
2016-08-26 03:03:00,72.9,67.7,30.09,ESE,109,0.0,0.0,84,0.00,CLR,,0.00,WeatherDisplay:10.37,2016-08-26 07:03:00,
2016-08-26 03:08:00,72.7,67.2,30.09,ESE,109,0.0,0.0,83,0.00,CLR,,0.00,WeatherDisplay:10.37,2016-08-26 07:08:00,
2016-08-26 03:13:00,72.3,66.9,30.09,ESE,109,0.0,0.0,83,0.00,CLR,,0.00,WeatherDisplay:10.37,2016-08-26 07:13:00,
2016-08-26 03:18:00,72.1,66.7,30.09,SSE,155,0.0,0.0,83,0.00,CLR,,0.00,WeatherDisplay:10.37,2016-08-26 07:18:00,
2016-08-26 03:23:00,72.0,66.5,30.09,SSE,155,0.0,0.0,83,0.00,CLR,,0.00,WeatherDisplay:10.37,2016-08-26 07:23:00,
2016-08-26 03:28:00,72.0,66.9,30.09,SSW,199,0.0,0.0,84,0.00,CLR,,0.00,WeatherDisplay:10.37,2016-08-26 07:28:00,
2016-08-26 03:33:00,71.8,66.7,30.09,South,177,0.0,0.0,84,0.00,CLR,,0.00,WeatherDisplay:10.37,2016-08-26 07:33:00,
2016-08-26 03:38:00,71.8,66.7,30.09,SSW,199,0.0,0.0,84,0.00,CLR,,0.00,WeatherDisplay:10.37,2016-08-26 07:38:00,
2016-08-26 03:43:00,71.8,66.7,30.09,SSE,155,0.0,0.0,84,0.00,CLR,,0.00,WeatherDisplay:10.37,2016-08-26 07:43:00,
2016-08-26 03:48:00,71.6,66.5,30.09,South,177,0.0,0.7,84,0.00,CLR,,0.00,WeatherDisplay:10.37,2016-08-26 07:48:00,
2016-08-26 03:53:00,71.6,66.8,30.09,SSW,199,0.0,0.0,85,0.00,CLR,,0.00,WeatherDisplay:10.37,2016-08-26 07:53:00,
2016-08-26 03:58:00,71.8,67.4,30.09,NW,312,0.0,0.0,86,0.00,CLR,,0.00,WeatherDisplay:10.37,2016-08-26 07:58:00,
2016-08-26 04:03:00,71.8,67.4,30.09,SW,222,0.0,0.0,86,0.00,CLR,,0.00,WeatherDisplay:10.37,2016-08-26 08:03:00,
2016-08-26 04:08:00,71.8,67.4,30.09,SW,222,0.0,0.0,86,0.00,CLR,,0.00,WeatherDisplay:10.37,2016-08-26 08:08:00,
2016-08-26 04:13:00,72.0,67.5,30.09,WSW,245,0.0,0.0,86,0.00,CLR,,0.00,WeatherDisplay:10.37,2016-08-26 08:13:00,
2016-08-26 04:18:00,72.0,67.9,30.09,NW,312,0.0,0.0,87,0.00,CLR,,0.00,WeatherDisplay:10.37,2016-08-26 08:18:00,
2016-08-26 04:23:00,72.1,68.1,30.09,NW,312,0.0,0.0,87,0.00,CLR,,0.00,WeatherDisplay:10.37,2016-08-26 08:23:00,
2016-08-26 04:28:00,72.1,68.1,30.09,NW,312,0.0,0.0,87,0.00,CLR,,0.00,WeatherDisplay:10.37,2016-08-26 08:28:00,
2016-08-26 04:33:00,72.1,68.4,30.09,WNW,289,0.0,0.0,88,0.00,CLR,,0.00,WeatherDisplay:10.37,2016-08-26 08:33:00,
2016-08-26 04:38:00,72.1,68.4,30.09,WNW,289,0.0,0.0,88,0.00,CLR,,0.00,WeatherDisplay:10.37,2016-08-26 08:38:00,
2016-08-26 04:43:00,72.1,68.4,30.08,WNW,289,0.0,0.0,88,0.00,CLR,,0.00,WeatherDisplay:10.37,2016-08-26 08:43:00,
2016-08-26 04:48:00,71.8,68.0,30.08,NW,312,0.0,0.0,88,0.00,CLR,,0.00,WeatherDisplay:10.37,2016-08-26 08:48:00,
2016-08-26 04:53:00,71.8,68.0,30.08,NW,312,0.0,0.0,88,0.00,CLR,,0.00,WeatherDisplay:10.37,2016-08-26 08:53:00,
2016-08-26 04:58:00,71.8,68.0,30.08,NW,312,0.0,0.0,88,0.00,CLR,,0.00,WeatherDisplay:10.37,2016-08-26 08:58:00,
2016-08-26 05:03:00,71.8,68.0,30.09,NW,312,0.0,0.0,88,0.00,CLR,,0.00,WeatherDisplay:10.37,2016-08-26 09:03:00,
2016-08-26 05:08:00,71.6,67.9,30.09,NW,312,0.0,0.0,88,0.00,CLR,,0.00,WeatherDisplay:10.37,2016-08-26 09:08:00,
2016-08-26 05:13:00,71.4,67.7,30.09,NW,313,0.0,0.0,88,0.00,CLR,,0.00,WeatherDisplay:10.37,2016-08-26 09:13:00,
2016-08-26 05:18:00,71.4,67.7,30.09,NW,313,0.0,0.0,88,0.00,CLR,,0.00,WeatherDisplay:10.37,2016-08-26 09:18:00,
2016-08-26 05:23:00,71.4,67.7,30.08,NW,312,0.0,0.0,88,0.00,CLR,,0.00,WeatherDisplay:10.37,2016-08-26 09:23:00,
2016-08-26 05:28:00,71.4,67.7,30.08,NW,313,0.0,0.0,88,0.00,CLR,,0.00,WeatherDisplay:10.37,2016-08-26 09:28:00,
2016-08-26 05:33:00,71.2,67.5,30.08,WNW,289,0.0,0.0,88,0.00,CLR,,0.00,WeatherDisplay:10.37,2016-08-26 09:33:00,
2016-08-26 05:38:00,71.1,67.3,30.08,WNW,289,0.0,0.0,88,0.00,CLR,,0.00,WeatherDisplay:10.37,2016-08-26 09:38:00,
2016-08-26 05:43:00,70.9,67.1,30.09,WNW,289,0.0,0.0,88,0.00,CLR,,0.00,WeatherDisplay:10.37,2016-08-26 09:43:00,
2016-08-26 05:48:00,71.1,67.7,30.08,NW,312,0.0,0.0,89,0.00,CLR,,0.00,WeatherDisplay:10.37,2016-08-26 09:48:00,
2016-08-26 05:53:00,71.2,67.8,30.08,NNW,335,0.0,0.0,89,0.00,CLR,,0.00,WeatherDisplay:10.37,2016-08-26 09:53:00,
2016-08-26 05:58:00,71.4,68.0,30.08,WNW,289,0.0,0.0,89,0.00,CLR,,0.00,WeatherDisplay:10.37,2016-08-26 09:58:00,
2016-08-26 06:03:00,71.2,67.8,30.08,WNW,289,0.0,0.0,89,0.00,CLR,,0.00,WeatherDisplay:10.37,2016-08-26 10:03:00,
2016-08-26 06:08:00,71.2,67.8,30.09,WNW,289,0.0,0.0,89,0.00,CLR,,0.00,WeatherDisplay:10.37,2016-08-26 10:08:00,
2016-08-26 06:13:00,71.1,67.7,30.09,NNW,335,0.0,0.0,89,0.00,CLR,,0.00,WeatherDisplay:10.37,2016-08-26 10:13:00,
2016-08-26 06:23:00,71.1,67.7,30.09,NW,312,0.0,0.0,89,0.00,CLR,,0.00,WeatherDisplay:10.37,2016-08-26 10:23:00,
2016-08-26 06:28:00,71.2,67.8,30.10,NW,312,0.0,0.0,89,0.00,CLR,,0.00,WeatherDisplay:10.37,2016-08-26 10:28:00,
2016-08-26 06:33:00,71.2,67.8,30.10,ENE,65,0.0,0.0,89,0.00,CLR,,0.00,WeatherDisplay:10.37,2016-08-26 10:33:00,
2016-08-26 06:38:00,71.2,67.8,30.10,ENE,65,0.0,0.0,89,0.00,CLR,,0.00,WeatherDisplay:10.37,2016-08-26 10:38:00,
2016-08-26 06:43:00,71.2,67.8,30.09,ENE,65,0.0,0.0,89,0.00,CLR,,0.00,WeatherDisplay:10.37,2016-08-26 10:43:00,
2016-08-26 06:48:00,70.9,67.5,30.10,ENE,65,0.0,0.0,89,0.00,CLR,,0.00,WeatherDisplay:10.37,2016-08-26 10:48:00,
2016-08-26 06:53:00,70.9,67.5,30.10,ENE,65,0.0,0.0,89,0.00,CLR,,0.00,WeatherDisplay:10.37,2016-08-26 10:53:00,
2016-08-26 06:58:00,70.7,67.3,30.10,NNE,19,0.0,0.0,89,0.00,CLR,,0.00,WeatherDisplay:10.37,2016-08-26 10:58:00,
2016-08-26 07:03:00,70.7,67.3,30.10,NE,42,0.0,0.0,89,0.00,CLR,,0.00,WeatherDisplay:10.37,2016-08-26 11:03:00,
2016-08-26 07:08:00,70.7,67.3,30.09,NE,42,0.0,0.0,89,0.00,BKN,,0.00,WeatherDisplay:10.37,2016-08-26 11:08:00,
2016-08-26 07:13:00,70.9,67.5,30.10,NE,42,0.0,0.0,89,0.00,BKN,,0.00,WeatherDisplay:10.37,2016-08-26 11:13:00,
2016-08-26 07:18:00,70.9,67.5,30.10,ENE,65,0.0,0.0,89,0.00,BKN,,0.00,WeatherDisplay:10.37,2016-08-26 11:18:00,
2016-08-26 07:23:00,70.9,67.5,30.10,East,87,0.0,0.0,89,0.00,BKN,,0.00,WeatherDisplay:10.37,2016-08-26 11:23:00,
2016-08-26 07:28:00,70.9,67.5,30.10,East,87,0.0,0.0,89,0.00,BKN,,0.00,WeatherDisplay:10.37,2016-08-26 11:28:00,
2016-08-26 07:33:00,70.9,67.8,30.10,NE,42,0.0,0.0,90,0.00,BKN,,0.00,WeatherDisplay:10.37,2016-08-26 11:33:00,
2016-08-26 07:38:00,71.2,68.2,30.10,East,87,0.0,0.0,90,0.00,BKN,,0.00,WeatherDisplay:10.37,2016-08-26 11:38:00,
2016-08-26 07:43:00,71.2,68.2,30.10,East,87,0.0,0.0,90,0.00,BKN,,0.00,WeatherDisplay:10.37,2016-08-26 11:43:00,
2016-08-26 07:48:00,71.4,68.3,30.10,East,87,0.0,0.0,90,0.00,BKN,,0.00,WeatherDisplay:10.37,2016-08-26 11:48:00,
2016-08-26 07:53:00,71.4,68.3,30.10,SSE,155,0.0,0.0,90,0.00,BKN,,0.00,WeatherDisplay:10.37,2016-08-26 11:53:00,
2016-08-26 07:58:00,71.8,68.7,30.10,SSE,155,0.0,0.0,90,0.00,BKN,,0.00,WeatherDisplay:10.37,2016-08-26 11:58:00,
2016-08-26 08:03:00,71.8,68.7,30.10,SSE,155,0.0,0.0,90,0.00,BKN,,0.00,WeatherDisplay:10.37,2016-08-26 12:03:00,
2016-08-26 08:08:00,72.1,69.0,30.10,South,177,0.0,0.0,90,0.00,CLR,,0.00,WeatherDisplay:10.37,2016-08-26 12:08:00,
2016-08-26 08:13:00,72.1,69.0,30.11,SSW,199,0.0,0.0,90,0.00,CLR,,0.00,WeatherDisplay:10.37,2016-08-26 12:13:00,
2016-08-26 08:18:00,72.1,69.0,30.11,South,177,0.0,0.0,90,0.00,CLR,,0.00,WeatherDisplay:10.37,2016-08-26 12:18:00,
2016-08-26 08:23:00,72.7,69.6,30.11,WSW,245,0.0,0.0,90,0.00,CLR,,0.00,WeatherDisplay:10.37,2016-08-26 12:23:00,
2016-08-26 08:28:00,73.0,69.9,30.11,SW,222,0.0,0.0,90,0.00,CLR,,0.00,WeatherDisplay:10.37,2016-08-26 12:28:00,
2016-08-26 08:33:00,73.0,69.9,30.10,SW,222,0.0,0.0,90,0.00,CLR,,0.00,WeatherDisplay:10.37,2016-08-26 12:33:00,
2016-08-26 08:38:00,73.0,69.9,30.10,SW,222,0.0,0.0,90,0.00,CLR,,0.00,WeatherDisplay:10.37,2016-08-26 12:38:00,
2016-08-26 08:43:00,74.1,71.0,30.11,SW,222,0.0,0.0,90,0.00,CLR,,0.00,WeatherDisplay:10.37,2016-08-26 12:43:00,
2016-08-26 08:48:00,74.5,71.4,30.11,SW,222,0.0,0.0,90,0.00,CLR,,0.00,WeatherDisplay:10.37,2016-08-26 12:48:00,
2016-08-26 08:58:00,75.0,71.6,30.12,WSW,245,0.0,0.0,89,0.00,CLR,,0.00,WeatherDisplay:10.37,2016-08-26 12:58:00,
2016-08-26 09:03:00,75.2,71.7,30.12,SW,222,0.0,0.0,89,0.00,CLR,,0.00,WeatherDisplay:10.37,2016-08-26 13:03:00,
2016-08-26 09:08:00,75.7,72.3,30.12,NW,312,0.0,0.0,89,0.00,CLR,,0.00,WeatherDisplay:10.37,2016-08-26 13:08:00,
2016-08-26 09:13:00,76.5,72.6,30.12,West,267,0.0,0.0,88,0.00,CLR,,0.00,WeatherDisplay:10.37,2016-08-26 13:13:00,
2016-08-26 09:18:00,77.2,73.3,30.11,NE,43,0.0,0.0,88,0.00,CLR,,0.00,WeatherDisplay:10.37,2016-08-26 13:18:00,
2016-08-26 09:23:00,77.9,73.7,30.11,WSW,245,1.3,2.3,87,0.00,CLR,,0.00,WeatherDisplay:10.37,2016-08-26 13:23:00,
2016-08-26 09:28:00,78.6,74.1,30.11,SSW,199,0.0,0.0,86,0.00,CLR,,0.00,WeatherDisplay:10.37,2016-08-26 13:28:00,
2016-08-26 09:33:00,79.0,74.4,30.11,ESE,109,0.0,0.0,86,0.00,CLR,,0.00,WeatherDisplay:10.37,2016-08-26 13:33:00,
2016-08-26 09:38:00,79.9,74.6,30.11,North,357,0.0,0.0,84,0.00,CLR,,0.00,WeatherDisplay:10.37,2016-08-26 13:38:00,
2016-08-26 09:43:00,80.4,74.8,30.11,ENE,65,0.0,0.0,83,0.00,CLR,,0.00,WeatherDisplay:10.37,2016-08-26 13:43:00,
2016-08-26 09:48:00,80.8,74.8,30.11,East,87,0.0,0.0,82,0.00,CLR,,0.00,WeatherDisplay:10.37,2016-08-26 13:48:00,
2016-08-26 09:53:00,81.1,75.1,30.12,ESE,109,0.0,0.0,82,0.00,CLR,,0.00,WeatherDisplay:10.37,2016-08-26 13:53:00,
2016-08-26 09:58:00,81.5,75.1,30.12,ESE,109,0.0,0.0,81,0.00,CLR,,0.00,WeatherDisplay:10.37,2016-08-26 13:58:00,
2016-08-26 10:03:00,82.0,75.6,30.12,ESE,109,0.0,0.0,81,0.00,CLR,,0.00,WeatherDisplay:10.37,2016-08-26 14:03:00,
2016-08-26 10:08:00,82.8,76.0,30.12,ESE,109,0.0,0.0,80,0.00,CLR,,0.00,WeatherDisplay:10.37,2016-08-26 14:08:00,
2016-08-26 10:13:00,83.3,75.3,30.12,North,357,1.1,1.2,77,0.00,CLR,,0.00,WeatherDisplay:10.37,2016-08-26 14:13:00,
2016-08-26 10:18:00,84.2,76.2,30.13,ENE,65,0.0,0.0,77,0.00,CLR,,0.00,WeatherDisplay:10.37,2016-08-26 14:18:00,
2016-08-26 10:23:00,84.9,76.5,30.13,East,87,0.0,0.0,76,0.00,CLR,,0.00,WeatherDisplay:10.37,2016-08-26 14:23:00,
2016-08-26 10:28:00,85.6,76.4,30.13,ESE,109,0.0,0.0,74,0.00,CLR,,0.00,WeatherDisplay:10.37,2016-08-26 14:28:00,
2016-08-26 10:33:00,86.5,76.9,30.13,SE,132,0.0,0.0,73,0.00,CLR,,0.00,WeatherDisplay:10.37,2016-08-26 14:33:00,
2016-08-26 10:38:00,87.4,77.3,30.13,West,267,0.7,1.2,72,0.00,CLR,,0.00,WeatherDisplay:10.37,2016-08-26 14:38:00,
2016-08-26 10:43:00,88.0,77.0,30.13,NW,312,1.6,1.6,70,0.00,CLR,,0.00,WeatherDisplay:10.37,2016-08-26 14:43:00,
2016-08-26 10:48:00,88.0,76.1,30.13,East,87,0.0,0.0,68,0.00,CLR,,0.00,WeatherDisplay:10.37,2016-08-26 14:48:00,
2016-08-26 10:53:00,88.5,76.2,30.13,North,357,0.0,0.0,67,0.00,CLR,,0.00,WeatherDisplay:10.37,2016-08-26 14:53:00,
2016-08-26 10:58:00,89.2,76.4,30.13,NNE,19,0.0,1.2,66,0.00,CLR,,0.00,WeatherDisplay:10.37,2016-08-26 14:58:00,
2016-08-26 11:03:00,90.0,76.1,30.13,ESE,109,0.0,0.0,64,0.00,CLR,,0.00,WeatherDisplay:10.37,2016-08-26 15:03:00,
2016-08-26 11:08:00,90.7,76.8,30.14,NNW,335,0.0,0.0,64,0.00,CLR,,0.00,WeatherDisplay:10.37,2016-08-26 15:08:00,
2016-08-26 11:13:00,91.2,77.3,30.13,SSE,155,0.0,1.2,64,0.00,CLR,,0.00,WeatherDisplay:10.37,2016-08-26 15:13:00,
2016-08-26 11:18:00,92.7,78.7,30.13,NNW,335,2.1,2.3,64,0.00,CLR,,0.00,WeatherDisplay:10.37,2016-08-26 15:18:00,
2016-08-26 11:23:00,93.2,77.2,30.13,NW,312,0.4,1.2,60,0.00,CLR,,0.00,WeatherDisplay:10.37,2016-08-26 15:23:00,
2016-08-26 11:28:00,93.4,76.9,30.13,ENE,65,0.9,2.3,59,0.00,CLR,,0.00,WeatherDisplay:10.37,2016-08-26 15:28:00,
2016-08-26 11:33:00,93.2,76.2,30.13,East,87,0.0,0.0,58,0.00,CLR,,0.00,WeatherDisplay:10.37,2016-08-26 15:33:00,
2016-08-26 11:38:00,92.1,75.7,30.13,WSW,245,0.2,1.2,59,0.00,CLR,,0.00,WeatherDisplay:10.37,2016-08-26 15:38:00,
2016-08-26 11:43:00,91.2,74.9,30.13,NNW,335,2.0,2.3,59,0.00,CLR,,0.00,WeatherDisplay:10.37,2016-08-26 15:43:00,
2016-08-26 11:53:00,90.1,76.3,30.13,WSW,245,0.5,1.1,64,0.00,CLR,,0.00,WeatherDisplay:10.37,2016-08-26 15:53:00,
2016-08-26 11:58:00,90.7,76.8,30.13,SSW,199,1.6,1.6,64,0.00,CLR,,0.00,WeatherDisplay:10.37,2016-08-26 15:58:00,
2016-08-26 12:03:00,91.6,76.7,30.13,NNE,19,0.0,0.0,62,0.00,CLR,,0.00,WeatherDisplay:10.37,2016-08-26 16:03:00,
2016-08-26 12:08:00,92.3,74.9,30.13,SE,132,0.2,2.3,57,0.00,FEW,,0.00,WeatherDisplay:10.37,2016-08-26 16:08:00,
2016-08-26 12:13:00,93.0,75.0,30.13,NNW,335,2.5,2.5,56,0.00,FEW,,0.00,WeatherDisplay:10.37,2016-08-26 16:13:00,
2016-08-26 12:18:00,93.4,74.8,30.13,ESE,109,2.5,2.5,55,0.00,FEW,,0.00,WeatherDisplay:10.37,2016-08-26 16:18:00,
2016-08-26 12:23:00,94.6,75.4,30.12,ENE,65,0.0,0.0,54,0.00,FEW,,0.00,WeatherDisplay:10.37,2016-08-26 16:23:00,
2016-08-26 12:33:00,95.5,75.7,30.13,WSW,245,1.1,1.2,53,0.00,FEW,,0.00,WeatherDisplay:10.37,2016-08-26 16:33:00,
2016-08-26 12:38:00,96.1,76.2,30.12,ENE,65,0.1,0.0,53,0.00,FEW,,0.00,WeatherDisplay:10.37,2016-08-26 16:38:00,
2016-08-26 12:43:00,96.1,76.7,30.12,SE,132,1.6,1.6,54,0.00,FEW,,0.00,WeatherDisplay:10.37,2016-08-26 16:43:00,
2016-08-26 12:48:00,96.6,76.7,30.12,SE,132,2.0,2.3,53,0.00,FEW,,0.00,WeatherDisplay:10.37,2016-08-26 16:48:00,
2016-08-26 12:53:00,97.3,77.3,30.11,SE,132,0.0,0.0,53,0.00,FEW,,0.00,WeatherDisplay:10.37,2016-08-26 16:53:00,
2016-08-26 12:58:00,97.7,77.7,30.11,SE,132,0.0,0.0,53,0.00,FEW,,0.00,WeatherDisplay:10.37,2016-08-26 16:58:00,
2016-08-26 13:03:00,98.2,77.6,30.11,SE,132,0.0,0.0,52,0.00,FEW,,0.00,WeatherDisplay:10.37,2016-08-26 17:03:00,
2016-08-26 13:08:00,98.4,77.8,30.11,SE,132,2.0,2.3,52,0.00,SCT,,0.00,WeatherDisplay:10.37,2016-08-26 17:08:00,
2016-08-26 13:13:00,98.8,76.9,30.11,ESE,109,2.0,2.3,50,0.00,SCT,,0.00,WeatherDisplay:10.37,2016-08-26 17:13:00,
2016-08-26 13:18:00,98.4,75.3,30.11,NNW,335,0.7,1.2,48,0.00,SCT,,0.00,WeatherDisplay:10.37,2016-08-26 17:18:00,
2016-08-26 13:23:00,98.1,76.2,30.11,ESE,109,0.5,1.2,50,0.00,SCT,,0.00,WeatherDisplay:10.37,2016-08-26 17:23:00,
2016-08-26 13:34:00,98.8,77.5,30.10,ESE,109,0.0,3.5,51,0.00,SCT,,0.00,WeatherDisplay:10.37,2016-08-26 17:34:00,
2016-08-26 13:39:00,99.5,78.2,30.10,SE,132,1.4,1.6,51,0.00,SCT,,0.00,WeatherDisplay:10.37,2016-08-26 17:39:00,
2016-08-26 13:44:00,99.9,77.9,30.10,SSE,155,0.9,1.2,50,0.00,SCT,,0.00,WeatherDisplay:10.37,2016-08-26 17:44:00,
2016-08-26 13:49:00,100.0,76.8,30.10,SE,132,2.6,2.6,48,0.00,SCT,,0.00,WeatherDisplay:10.37,2016-08-26 17:49:00,
2016-08-26 13:54:00,99.9,77.3,30.10,ESE,109,2.2,2.3,49,0.00,SCT,,0.00,WeatherDisplay:10.37,2016-08-26 17:54:00,
2016-08-26 13:59:00,99.5,76.3,30.10,West,267,1.1,1.2,48,0.00,SCT,,0.00,WeatherDisplay:10.37,2016-08-26 17:59:00,
2016-08-26 14:04:00,98.6,76.1,30.10,SE,132,0.1,1.6,49,0.00,SCT,,0.00,WeatherDisplay:10.37,2016-08-26 18:04:00,
2016-08-26 14:09:00,98.8,76.9,30.10,East,87,0.0,0.0,50,0.00,BKN,,0.00,WeatherDisplay:10.37,2016-08-26 18:09:00,
2016-08-26 14:14:00,98.2,75.8,30.09,SW,222,1.0,1.2,49,0.00,BKN,,0.00,WeatherDisplay:10.37,2016-08-26 18:14:00,
2016-08-26 14:19:00,97.7,75.3,30.09,ENE,65,0.0,0.0,49,0.00,BKN,,0.00,WeatherDisplay:10.37,2016-08-26 18:19:00,
2016-08-26 14:24:00,97.5,75.8,30.09,ESE,109,1.6,1.6,50,0.00,BKN,,0.00,WeatherDisplay:10.37,2016-08-26 18:24:00,
2016-08-26 14:29:00,97.5,75.1,30.09,ESE,109,1.1,1.2,49,0.00,BKN,,0.00,WeatherDisplay:10.37,2016-08-26 18:29:00,
2016-08-26 14:34:00,96.6,75.5,30.09,North,357,0.7,1.2,51,0.00,BKN,,0.00,WeatherDisplay:10.37,2016-08-26 18:34:00,
2016-08-26 14:39:00,96.4,75.4,30.09,SE,132,0.0,0.0,51,0.00,BKN,,0.00,WeatherDisplay:10.37,2016-08-26 18:39:00,
2016-08-26 14:44:00,96.1,75.0,30.08,South,177,0.0,1.2,51,0.00,BKN,,0.00,WeatherDisplay:10.37,2016-08-26 18:44:00,
2016-08-26 14:49:00,95.9,75.4,30.08,East,87,1.4,1.4,52,0.00,BKN,,0.00,WeatherDisplay:10.37,2016-08-26 18:49:00,
2016-08-26 14:54:00,96.1,75.0,30.08,SSE,155,0.0,0.0,51,0.00,BKN,,0.00,WeatherDisplay:10.37,2016-08-26 18:54:00,
2016-08-26 14:59:00,96.6,76.1,30.07,East,87,2.2,2.3,52,0.00,BKN,,0.00,WeatherDisplay:10.37,2016-08-26 18:59:00,
2016-08-26 15:04:00,97.2,75.4,30.07,NE,42,2.8,3.5,50,0.00,BKN,,0.00,WeatherDisplay:10.37,2016-08-26 19:04:00,
2016-08-26 15:09:00,97.2,76.0,30.07,North,357,0.0,0.0,51,0.00,FEW,,0.00,WeatherDisplay:10.37,2016-08-26 19:09:00,
2016-08-26 15:14:00,97.2,75.4,30.07,SE,132,2.0,3.5,50,0.00,FEW,,0.00,WeatherDisplay:10.37,2016-08-26 19:14:00,
2016-08-26 15:19:00,96.6,74.9,30.06,ESE,109,0.0,0.0,50,0.00,FEW,,0.00,WeatherDisplay:10.37,2016-08-26 19:19:00,
2016-08-26 15:24:00,95.5,73.9,30.06,NNE,19,1.2,2.3,50,0.00,FEW,,0.00,WeatherDisplay:10.37,2016-08-26 19:24:00,
2016-08-26 15:29:00,95.4,74.9,30.06,SE,132,0.0,0.0,52,0.00,FEW,,0.00,WeatherDisplay:10.37,2016-08-26 19:29:00,
2016-08-26 15:34:00,95.7,75.3,30.06,SSW,199,0.5,3.6,52,0.00,FEW,,0.00,WeatherDisplay:10.37,2016-08-26 19:34:00,
2016-08-26 15:39:00,95.9,74.9,30.05,ESE,109,1.3,1.3,51,0.00,FEW,,0.00,WeatherDisplay:10.37,2016-08-26 19:39:00,
2016-08-26 15:45:00,95.9,74.9,30.05,SE,132,0.0,0.0,51,0.00,FEW,,0.00,WeatherDisplay:10.37,2016-08-26 19:45:00,
2016-08-26 15:50:00,95.9,74.3,30.05,East,87,0.0,2.3,50,0.00,FEW,,0.00,WeatherDisplay:10.37,2016-08-26 19:50:00,
2016-08-26 15:55:00,95.9,74.9,30.05,East,87,2.2,2.3,51,0.00,FEW,,0.00,WeatherDisplay:10.37,2016-08-26 19:55:00,
2016-08-26 16:00:00,95.4,73.8,30.05,ENE,65,2.5,3.8,50,0.00,FEW,,0.00,WeatherDisplay:10.37,2016-08-26 20:00:00,
2016-08-26 16:05:00,94.3,73.4,30.05,East,87,0.0,1.2,51,0.00,FEW,,0.00,WeatherDisplay:10.37,2016-08-26 20:05:00,
2016-08-26 16:10:00,93.6,73.3,30.05,NNW,335,0.0,0.0,52,0.00,SCT,,0.00,WeatherDisplay:10.37,2016-08-26 20:10:00,
2016-08-26 16:15:00,93.6,74.4,30.06,East,87,0.0,0.0,54,0.00,SCT,,0.00,WeatherDisplay:10.37,2016-08-26 20:15:00,
2016-08-26 16:20:00,93.7,74.0,30.05,ENE,65,0.0,0.0,53,0.00,SCT,,0.00,WeatherDisplay:10.37,2016-08-26 20:20:00,
2016-08-26 16:25:00,94.3,74.0,30.05,SSE,155,0.0,0.0,52,0.00,SCT,,0.00,WeatherDisplay:10.37,2016-08-26 20:25:00,
2016-08-26 16:30:00,94.6,73.7,30.05,SSE,155,0.8,2.9,51,0.00,SCT,,0.00,WeatherDisplay:10.37,2016-08-26 20:30:00,
2016-08-26 16:35:00,94.8,73.9,30.06,SE,132,0.7,0.9,51,0.00,SCT,,0.00,WeatherDisplay:10.37,2016-08-26 20:35:00,
2016-08-26 16:40:00,94.8,73.9,30.06,SE,132,0.0,3.1,51,0.00,SCT,,0.00,WeatherDisplay:10.37,2016-08-26 20:40:00,
2016-08-26 16:45:00,94.6,73.1,30.05,ESE,109,2.0,3.1,50,0.00,SCT,,0.00,WeatherDisplay:10.37,2016-08-26 20:45:00,
2016-08-26 16:55:00,94.8,73.3,30.06,East,87,0.0,0.0,50,0.00,SCT,,0.00,WeatherDisplay:10.37,2016-08-26 20:55:00,
2016-08-26 17:00:00,94.6,73.1,30.06,East,87,1.2,3.1,50,0.00,SCT,,0.00,WeatherDisplay:10.37,2016-08-26 21:00:00,
2016-08-26 17:05:00,94.3,73.4,30.05,ENE,65,0.0,0.0,51,0.00,SCT,,0.00,WeatherDisplay:10.37,2016-08-26 21:05:00,
2016-08-26 17:10:00,94.1,73.8,30.05,West,267,0.0,0.0,52,0.00,FEW,,0.00,WeatherDisplay:10.37,2016-08-26 21:10:00,
2016-08-26 17:15:00,93.9,73.6,30.05,ESE,109,0.3,1.2,52,0.00,FEW,,0.00,WeatherDisplay:10.37,2016-08-26 21:15:00,
2016-08-26 17:20:00,93.9,73.6,30.05,South,177,0.0,1.2,52,0.00,FEW,,0.00,WeatherDisplay:10.37,2016-08-26 21:20:00,
2016-08-26 17:25:00,93.7,74.0,30.05,ESE,109,0.0,0.0,53,0.00,FEW,,0.00,WeatherDisplay:10.37,2016-08-26 21:25:00,
2016-08-26 17:30:00,93.4,73.7,30.05,ESE,109,0.5,1.1,53,0.00,FEW,,0.00,WeatherDisplay:10.37,2016-08-26 21:30:00,
2016-08-26 17:35:00,93.4,73.1,30.05,SE,132,0.0,1.1,52,0.00,FEW,,0.00,WeatherDisplay:10.37,2016-08-26 21:35:00,
2016-08-26 17:40:00,93.4,73.1,30.05,SE,132,0.4,2.3,52,0.00,FEW,,0.00,WeatherDisplay:10.37,2016-08-26 21:40:00,
2016-08-26 17:45:00,93.2,73.0,30.04,ENE,65,0.2,1.2,52,0.00,FEW,,0.00,WeatherDisplay:10.37,2016-08-26 21:45:00,
2016-08-26 17:50:00,93.0,72.8,30.04,ESE,109,1.8,2.3,52,0.00,FEW,,0.00,WeatherDisplay:10.37,2016-08-26 21:50:00,
2016-08-26 17:55:00,92.8,73.2,30.04,SE,132,0.0,0.0,53,0.00,FEW,,0.00,WeatherDisplay:10.37,2016-08-26 21:55:00,
2016-08-26 18:00:00,92.7,72.5,30.05,ESE,109,0.0,0.0,52,0.00,FEW,,0.00,WeatherDisplay:10.37,2016-08-26 22:00:00,
2016-08-26 18:05:00,92.5,72.3,30.05,East,87,0.0,0.0,52,0.00,FEW,,0.00,WeatherDisplay:10.37,2016-08-26 22:05:00,
2016-08-26 18:10:00,92.3,72.7,30.05,ESE,109,1.8,2.3,53,0.00,CLR,,0.00,WeatherDisplay:10.37,2016-08-26 22:10:00,
2016-08-26 18:15:00,92.1,72.5,30.05,East,87,0.6,1.2,53,0.00,CLR,,0.00,WeatherDisplay:10.37,2016-08-26 22:15:00,
2016-08-26 18:20:00,91.9,72.9,30.04,ESE,109,0.9,2.9,54,0.00,CLR,,0.00,WeatherDisplay:10.37,2016-08-26 22:20:00,
2016-08-26 18:25:00,91.6,72.6,30.04,ESE,109,0.0,0.0,54,0.00,CLR,,0.00,WeatherDisplay:10.37,2016-08-26 22:25:00,
2016-08-26 18:30:00,91.2,72.2,30.05,ESE,109,0.0,0.0,54,0.00,CLR,,0.00,WeatherDisplay:10.37,2016-08-26 22:30:00,
2016-08-26 18:35:00,91.0,72.6,30.05,ESE,109,0.0,0.0,55,0.00,CLR,,0.00,WeatherDisplay:10.37,2016-08-26 22:35:00,
2016-08-26 18:40:00,91.0,72.6,30.05,ESE,109,0.0,0.0,55,0.00,CLR,,0.00,WeatherDisplay:10.37,2016-08-26 22:40:00,
2016-08-26 18:45:00,90.9,73.0,30.05,ESE,109,0.0,0.0,56,0.00,CLR,,0.00,WeatherDisplay:10.37,2016-08-26 22:45:00,
2016-08-26 18:50:00,90.7,72.8,30.05,SE,132,0.0,0.0,56,0.00,CLR,,0.00,WeatherDisplay:10.37,2016-08-26 22:50:00,
2016-08-26 18:51:00,90.7,72.8,30.05,ESE,109,0.0,0.0,56,0.00,CLR,,0.00,WeatherDisplay:10.37,2016-08-26 22:51:00,
2016-08-26 18:56:00,90.5,72.7,30.05,ESE,109,0.0,0.0,56,0.00,CLR,,0.00,WeatherDisplay:10.37,2016-08-26 22:56:00,
2016-08-26 19:01:00,90.3,72.5,30.05,ESE,109,0.1,0.0,56,0.00,CLR,,0.00,WeatherDisplay:10.37,2016-08-26 23:01:00,
2016-08-26 19:06:00,90.0,72.7,30.05,ESE,109,0.0,0.0,57,0.00,CLR,,0.00,WeatherDisplay:10.37,2016-08-26 23:06:00,
2016-08-26 19:11:00,89.8,72.5,30.05,ESE,109,0.0,0.0,57,0.00,CLR,,0.00,WeatherDisplay:10.37,2016-08-26 23:11:00,
2016-08-26 19:16:00,89.2,72.0,30.05,SSW,199,0.0,0.0,57,0.00,CLR,,0.00,WeatherDisplay:10.37,2016-08-26 23:16:00,
2016-08-26 19:21:00,88.9,72.2,30.05,SE,132,0.0,0.0,58,0.00,CLR,,0.00,WeatherDisplay:10.37,2016-08-26 23:21:00,
2016-08-26 19:31:00,88.3,71.7,30.06,East,87,0.0,0.0,58,0.00,CLR,,0.00,WeatherDisplay:10.37,2016-08-26 23:31:00,
2016-08-26 19:36:00,88.2,72.0,30.06,SSE,155,0.0,0.0,59,0.00,CLR,,0.00,WeatherDisplay:10.37,2016-08-26 23:36:00,
2016-08-26 19:41:00,88.0,71.9,30.06,SSE,155,0.0,0.0,59,0.00,CLR,,0.00,WeatherDisplay:10.37,2016-08-26 23:41:00,
2016-08-26 19:46:00,87.6,72.0,30.06,East,87,0.0,0.0,60,0.00,CLR,,0.00,WeatherDisplay:10.37,2016-08-26 23:46:00,
2016-08-26 19:51:00,86.9,71.8,30.06,NE,42,0.0,0.0,61,0.00,CLR,,0.00,WeatherDisplay:10.37,2016-08-26 23:51:00,
2016-08-26 19:56:00,86.4,71.8,30.06,NE,42,0.0,0.0,62,0.00,CLR,,0.00,WeatherDisplay:10.37,2016-08-26 23:56:00,
2016-08-26 20:01:00,85.8,71.8,30.06,NNE,19,0.0,0.0,63,0.00,CLR,,0.00,WeatherDisplay:10.37,2016-08-27 00:01:00,
2016-08-26 20:06:00,85.3,71.7,30.06,NE,42,0.0,0.0,64,0.00,CLR,,0.00,WeatherDisplay:10.37,2016-08-27 00:06:00,
2016-08-26 20:11:00,84.9,71.4,30.07,NE,42,0.0,0.0,64,0.00,CLR,,0.00,WeatherDisplay:10.37,2016-08-27 00:11:00,
2016-08-26 20:16:00,84.4,70.9,30.06,North,357,0.0,0.0,64,0.00,CLR,,0.00,WeatherDisplay:10.37,2016-08-27 00:16:00,
2016-08-26 20:21:00,83.8,70.4,30.06,NW,312,0.0,0.0,64,0.00,CLR,,0.00,WeatherDisplay:10.37,2016-08-27 00:21:00,
2016-08-26 20:26:00,83.5,70.9,30.06,NNW,335,0.0,0.0,66,0.00,CLR,,0.00,WeatherDisplay:10.37,2016-08-27 00:26:00,
2016-08-26 20:31:00,83.1,70.6,30.07,NNW,335,0.0,0.0,66,0.00,CLR,,0.00,WeatherDisplay:10.37,2016-08-27 00:31:00,
2016-08-26 20:36:00,82.9,70.9,30.07,North,357,0.0,0.0,67,0.00,CLR,,0.00,WeatherDisplay:10.37,2016-08-27 00:36:00,
2016-08-26 20:41:00,82.6,70.5,30.07,North,357,0.0,0.0,67,0.00,CLR,,0.00,WeatherDisplay:10.37,2016-08-27 00:41:00,
2016-08-26 20:46:00,82.2,70.2,30.07,North,357,0.0,0.0,67,0.00,CLR,,0.00,WeatherDisplay:10.37,2016-08-27 00:46:00,
2016-08-26 20:51:00,82.0,70.4,30.07,North,357,0.0,0.0,68,0.00,CLR,,0.00,WeatherDisplay:10.37,2016-08-27 00:51:00,
2016-08-26 20:56:00,81.7,70.1,30.07,North,357,0.0,0.0,68,0.00,CLR,,0.00,WeatherDisplay:10.37,2016-08-27 00:56:00,
2016-08-26 21:06:00,81.0,69.8,30.08,NW,312,0.0,0.0,69,0.00,CLR,,0.00,WeatherDisplay:10.37,2016-08-27 01:06:00,
2016-08-26 21:11:00,80.8,70.1,30.08,North,357,0.0,0.0,70,0.00,CLR,,0.00,WeatherDisplay:10.37,2016-08-27 01:11:00,
2016-08-26 21:16:00,80.4,69.7,30.08,NNW,335,0.0,0.0,70,0.00,CLR,,0.00,WeatherDisplay:10.37,2016-08-27 01:16:00,
2016-08-26 21:21:00,80.4,69.7,30.08,NW,312,0.0,0.0,70,0.00,CLR,,0.00,WeatherDisplay:10.37,2016-08-27 01:21:00,